sensor_id;sensor_type;location;lat;lon;timestamp;P1;durP1;ratioP1;P2;durP2;ratioP2
28455;SDS011;15682;56.742;38.866;2024-03-08T00:00:38;4.2;;;2.5;;
28455;SDS011;15682;56.742;38.866;2024-03-08T00:02:38;4.1;;;2.3;;
28455;SDS011;15682;56.742;38.866;2024-03-08T00:04:37;4.5;;;2.1;;
28455;SDS011;15682;56.742;38.866;2024-03-08T00:06:37;4.2;;;2.3;;
28455;SDS011;15682;56.742;38.866;2024-03-08T00:08:37;3.5;;;2.1;;
28455;SDS011;15682;56.742;38.866;2024-03-08T00:10:37;6.3;;;2.3;;
28455;SDS011;15682;56.742;38.866;2024-03-08T00:12:37;3.0;;;2.1;;
28455;SDS011;15682;56.742;38.866;2024-03-08T00:14:37;3.7;;;2.2;;
28455;SDS011;15682;56.742;38.866;2024-03-08T00:16:36;5.6;;;2.3;;
28455;SDS011;15682;56.742;38.866;2024-03-08T00:18:36;4.6;;;2.4;;
28455;SDS011;15682;56.742;38.866;2024-03-08T00:20:36;4.4;;;2.5;;
28455;SDS011;15682;56.742;38.866;2024-03-08T00:22:36;4.9;;;2.3;;
28455;SDS011;15682;56.742;38.866;2024-03-08T00:24:36;5.3;;;2.5;;
28455;SDS011;15682;56.742;38.866;2024-03-08T00:26:36;4.8;;;2.4;;
28455;SDS011;15682;56.742;38.866;2024-03-08T00:28:36;5.3;;;2.4;;
28455;SDS011;15682;56.742;38.866;2024-03-08T00:30:35;5.5;;;2.6;;
28455;SDS011;15682;56.742;38.866;2024-03-08T00:32:35;4.3;;;2.4;;
28455;SDS011;15682;56.742;38.866;2024-03-08T00:34:35;4.3;;;2.4;;
28455;SDS011;15682;56.742;38.866;2024-03-08T00:36:35;5.1;;;2.6;;
28455;SDS011;15682;56.742;38.866;2024-03-08T00:38:35;6.0;;;2.6;;
28455;SDS011;15682;56.742;38.866;2024-03-08T00:40:35;3.8;;;2.4;;
28455;SDS011;15682;56.742;38.866;2024-03-08T00:42:34;5.0;;;2.9;;
28455;SDS011;15682;56.742;38.866;2024-03-08T00:44:34;4.4;;;2.5;;
28455;SDS011;15682;56.742;38.866;2024-03-08T00:46:34;5.7;;;2.7;;
28455;SDS011;15682;56.742;38.866;2024-03-08T00:48:34;4.6;;;2.5;;
28455;SDS011;15682;56.742;38.866;2024-03-08T00:50:34;4.8;;;2.2;;
28455;SDS011;15682;56.742;38.866;2024-03-08T00:52:33;5.2;;;2.7;;
28455;SDS011;15682;56.742;38.866;2024-03-08T00:54:33;3.9;;;2.2;;
28455;SDS011;15682;56.742;38.866;2024-03-08T00:56:33;4.1;;;2.5;;
28455;SDS011;15682;56.742;38.866;2024-03-08T00:58:33;5.0;;;2.4;;
28455;SDS011;15682;56.742;38.866;2024-03-08T01:00:33;4.3;;;2.2;;
28455;SDS011;15682;56.742;38.866;2024-03-08T01:02:33;4.2;;;2.5;;
28455;SDS011;15682;56.742;38.866;2024-03-08T01:04:32;4.6;;;2.6;;
28455;SDS011;15682;56.742;38.866;2024-03-08T01:06:32;4.1;;;2.4;;
28455;SDS011;15682;56.742;38.866;2024-03-08T01:08:33;5.4;;;2.7;;
28455;SDS011;15682;56.742;38.866;2024-03-08T01:10:32;4.0;;;2.5;;
28455;SDS011;15682;56.742;38.866;2024-03-08T01:12:32;4.9;;;2.3;;
28455;SDS011;15682;56.742;38.866;2024-03-08T01:14:32;5.9;;;2.3;;
28455;SDS011;15682;56.742;38.866;2024-03-08T01:16:31;4.9;;;2.4;;
28455;SDS011;15682;56.742;38.866;2024-03-08T01:18:31;5.8;;;2.6;;
28455;SDS011;15682;56.742;38.866;2024-03-08T01:20:31;4.8;;;2.5;;
28455;SDS011;15682;56.742;38.866;2024-03-08T01:22:31;5.3;;;2.4;;
28455;SDS011;15682;56.742;38.866;2024-03-08T01:24:31;5.4;;;2.7;;
28455;SDS011;15682;56.742;38.866;2024-03-08T01:26:30;4.0;;;2.3;;
28455;SDS011;15682;56.742;38.866;2024-03-08T01:28:30;6.9;;;2.9;;
28455;SDS011;15682;56.742;38.866;2024-03-08T01:30:30;24.6;;;11.4;;
28455;SDS011;15682;56.742;38.866;2024-03-08T01:32:30;11.5;;;4.9;;
28455;SDS011;15682;56.742;38.866;2024-03-08T01:34:30;4.6;;;2.4;;
28455;SDS011;15682;56.742;38.866;2024-03-08T01:36:30;6.4;;;2.5;;
28455;SDS011;15682;56.742;38.866;2024-03-08T01:38:29;5.3;;;2.5;;
28455;SDS011;15682;56.742;38.866;2024-03-08T01:40:29;6.6;;;2.5;;
28455;SDS011;15682;56.742;38.866;2024-03-08T01:42:29;4.9;;;2.6;;
28455;SDS011;15682;56.742;38.866;2024-03-08T01:44:29;6.4;;;2.7;;
28455;SDS011;15682;56.742;38.866;2024-03-08T01:46:29;4.5;;;2.7;;
28455;SDS011;15682;56.742;38.866;2024-03-08T01:48:29;4.8;;;2.7;;
28455;SDS011;15682;56.742;38.866;2024-03-08T01:50:28;4.2;;;2.4;;
28455;SDS011;15682;56.742;38.866;2024-03-08T01:52:28;6.3;;;2.5;;
28455;SDS011;15682;56.742;38.866;2024-03-08T01:54:28;4.7;;;2.6;;
28455;SDS011;15682;56.742;38.866;2024-03-08T01:56:28;5.2;;;2.4;;
28455;SDS011;15682;56.742;38.866;2024-03-08T01:58:28;5.3;;;2.7;;
28455;SDS011;15682;56.742;38.866;2024-03-08T02:00:28;4.2;;;2.2;;
28455;SDS011;15682;56.742;38.866;2024-03-08T02:02:27;6.6;;;2.6;;
28455;SDS011;15682;56.742;38.866;2024-03-08T02:04:28;5.0;;;2.5;;
28455;SDS011;15682;56.742;38.866;2024-03-08T02:06:27;5.2;;;2.3;;
28455;SDS011;15682;56.742;38.866;2024-03-08T02:08:27;6.0;;;2.6;;
28455;SDS011;15682;56.742;38.866;2024-03-08T02:10:27;5.5;;;2.7;;
28455;SDS011;15682;56.742;38.866;2024-03-08T02:12:26;4.0;;;2.2;;
28455;SDS011;15682;56.742;38.866;2024-03-08T02:14:26;5.5;;;2.5;;
28455;SDS011;15682;56.742;38.866;2024-03-08T02:16:26;6.6;;;2.5;;
28455;SDS011;15682;56.742;38.866;2024-03-08T02:18:26;5.2;;;2.4;;
28455;SDS011;15682;56.742;38.866;2024-03-08T02:20:28;3.9;;;2.5;;
28455;SDS011;15682;56.742;38.866;2024-03-08T02:22:26;5.7;;;2.8;;
28455;SDS011;15682;56.742;38.866;2024-03-08T02:24:25;4.4;;;2.8;;
28455;SDS011;15682;56.742;38.866;2024-03-08T02:26:25;7.0;;;2.9;;
28455;SDS011;15682;56.742;38.866;2024-03-08T02:28:25;4.3;;;2.6;;
28455;SDS011;15682;56.742;38.866;2024-03-08T02:30:25;6.9;;;2.9;;
28455;SDS011;15682;56.742;38.866;2024-03-08T02:32:25;8.1;;;2.9;;
28455;SDS011;15682;56.742;38.866;2024-03-08T02:34:25;5.4;;;2.7;;
28455;SDS011;15682;56.742;38.866;2024-03-08T02:36:24;6.2;;;2.7;;
28455;SDS011;15682;56.742;38.866;2024-03-08T02:38:24;4.8;;;2.6;;
28455;SDS011;15682;56.742;38.866;2024-03-08T02:40:24;5.1;;;2.6;;
28455;SDS011;15682;56.742;38.866;2024-03-08T02:42:24;9.0;;;3.0;;
28455;SDS011;15682;56.742;38.866;2024-03-08T02:44:24;4.3;;;2.6;;
28455;SDS011;15682;56.742;38.866;2024-03-08T02:46:24;6.2;;;2.5;;
28455;SDS011;15682;56.742;38.866;2024-03-08T02:48:23;8.4;;;2.9;;
28455;SDS011;15682;56.742;38.866;2024-03-08T02:50:23;7.5;;;2.6;;
28455;SDS011;15682;56.742;38.866;2024-03-08T02:52:23;6.7;;;2.8;;
28455;SDS011;15682;56.742;38.866;2024-03-08T02:54:23;5.4;;;2.8;;
28455;SDS011;15682;56.742;38.866;2024-03-08T02:56:23;4.6;;;2.7;;
28455;SDS011;15682;56.742;38.866;2024-03-08T02:58:22;8.5;;;3.0;;
28455;SDS011;15682;56.742;38.866;2024-03-08T03:00:22;4.6;;;3.0;;
28455;SDS011;15682;56.742;38.866;2024-03-08T03:02:22;5.4;;;2.7;;
28455;SDS011;15682;56.742;38.866;2024-03-08T03:04:22;6.0;;;2.8;;
28455;SDS011;15682;56.742;38.866;2024-03-08T03:06:22;5.4;;;2.7;;
28455;SDS011;15682;56.742;38.866;2024-03-08T03:08:22;6.5;;;2.9;;
28455;SDS011;15682;56.742;38.866;2024-03-08T03:10:21;6.1;;;2.8;;
28455;SDS011;15682;56.742;38.866;2024-03-08T03:12:21;6.6;;;2.7;;
28455;SDS011;15682;56.742;38.866;2024-03-08T03:14:21;4.8;;;2.7;;
28455;SDS011;15682;56.742;38.866;2024-03-08T03:16:21;6.3;;;3.0;;
28455;SDS011;15682;56.742;38.866;2024-03-08T03:18:21;7.7;;;3.0;;
28455;SDS011;15682;56.742;38.866;2024-03-08T03:20:20;5.4;;;2.7;;
28455;SDS011;15682;56.742;38.866;2024-03-08T03:22:20;8.7;;;2.5;;
28455;SDS011;15682;56.742;38.866;2024-03-08T03:24:20;6.9;;;2.6;;
28455;SDS011;15682;56.742;38.866;2024-03-08T03:26:20;6.2;;;2.9;;
28455;SDS011;15682;56.742;38.866;2024-03-08T03:28:20;4.2;;;2.3;;
28455;SDS011;15682;56.742;38.866;2024-03-08T03:30:19;6.1;;;2.8;;
28455;SDS011;15682;56.742;38.866;2024-03-08T03:32:19;4.5;;;2.5;;
28455;SDS011;15682;56.742;38.866;2024-03-08T03:34:19;6.4;;;2.7;;
28455;SDS011;15682;56.742;38.866;2024-03-08T03:36:19;4.9;;;2.5;;
28455;SDS011;15682;56.742;38.866;2024-03-08T03:38:19;5.3;;;2.6;;
28455;SDS011;15682;56.742;38.866;2024-03-08T03:40:19;5.1;;;2.6;;
28455;SDS011;15682;56.742;38.866;2024-03-08T03:42:19;6.2;;;2.6;;
28455;SDS011;15682;56.742;38.866;2024-03-08T03:44:18;5.1;;;2.7;;
28455;SDS011;15682;56.742;38.866;2024-03-08T03:46:18;4.6;;;2.5;;
28455;SDS011;15682;56.742;38.866;2024-03-08T03:48:18;5.1;;;2.6;;
28455;SDS011;15682;56.742;38.866;2024-03-08T03:50:18;6.4;;;2.5;;
28455;SDS011;15682;56.742;38.866;2024-03-08T03:52:17;5.2;;;2.7;;
28455;SDS011;15682;56.742;38.866;2024-03-08T03:54:18;3.9;;;2.5;;
28455;SDS011;15682;56.742;38.866;2024-03-08T03:56:17;4.9;;;2.6;;
28455;SDS011;15682;56.742;38.866;2024-03-08T03:58:17;6.0;;;2.5;;
28455;SDS011;15682;56.742;38.866;2024-03-08T04:00:17;4.8;;;2.4;;
28455;SDS011;15682;56.742;38.866;2024-03-08T04:02:16;5.2;;;2.5;;
28455;SDS011;15682;56.742;38.866;2024-03-08T04:04:16;4.7;;;2.8;;
28455;SDS011;15682;56.742;38.866;2024-03-08T04:06:16;8.7;;;2.7;;
28455;SDS011;15682;56.742;38.866;2024-03-08T04:08:16;4.8;;;2.5;;
28455;SDS011;15682;56.742;38.866;2024-03-08T04:10:16;4.7;;;2.4;;
28455;SDS011;15682;56.742;38.866;2024-03-08T04:12:16;9.2;;;3.0;;
28455;SDS011;15682;56.742;38.866;2024-03-08T04:14:15;13.7;;;3.3;;
28455;SDS011;15682;56.742;38.866;2024-03-08T04:16:15;5.1;;;2.6;;
28455;SDS011;15682;56.742;38.866;2024-03-08T04:18:15;6.1;;;2.3;;
28455;SDS011;15682;56.742;38.866;2024-03-08T04:20:15;7.7;;;3.3;;
28455;SDS011;15682;56.742;38.866;2024-03-08T04:22:15;5.5;;;2.5;;
28455;SDS011;15682;56.742;38.866;2024-03-08T04:24:14;6.2;;;2.8;;
28455;SDS011;15682;56.742;38.866;2024-03-08T04:26:14;8.2;;;3.2;;
28455;SDS011;15682;56.742;38.866;2024-03-08T04:28:14;9.1;;;3.3;;
28455;SDS011;15682;56.742;38.866;2024-03-08T04:30:14;3.7;;;2.5;;
28455;SDS011;15682;56.742;38.866;2024-03-08T04:32:14;3.9;;;2.6;;
28455;SDS011;15682;56.742;38.866;2024-03-08T04:34:13;3.8;;;2.5;;
28455;SDS011;15682;56.742;38.866;2024-03-08T04:36:13;6.0;;;2.8;;
28455;SDS011;15682;56.742;38.866;2024-03-08T04:38:13;7.1;;;2.6;;
28455;SDS011;15682;56.742;38.866;2024-03-08T04:40:13;7.8;;;3.3;;
28455;SDS011;15682;56.742;38.866;2024-03-08T04:42:13;7.0;;;2.7;;
28455;SDS011;15682;56.742;38.866;2024-03-08T04:44:13;12.5;;;3.4;;
28455;SDS011;15682;56.742;38.866;2024-03-08T04:46:12;7.2;;;2.6;;
28455;SDS011;15682;56.742;38.866;2024-03-08T04:48:12;4.0;;;2.4;;
28455;SDS011;15682;56.742;38.866;2024-03-08T04:50:12;8.9;;;3.0;;
28455;SDS011;15682;56.742;38.866;2024-03-08T04:52:12;6.9;;;3.0;;
28455;SDS011;15682;56.742;38.866;2024-03-08T04:54:12;4.8;;;3.1;;
28455;SDS011;15682;56.742;38.866;2024-03-08T04:56:12;7.6;;;2.8;;
28455;SDS011;15682;56.742;38.866;2024-03-08T04:58:11;7.0;;;3.1;;
28455;SDS011;15682;56.742;38.866;2024-03-08T05:00:12;6.3;;;2.9;;
28455;SDS011;15682;56.742;38.866;2024-03-08T05:02:11;4.3;;;2.5;;
28455;SDS011;15682;56.742;38.866;2024-03-08T05:04:11;8.7;;;3.1;;
28455;SDS011;15682;56.742;38.866;2024-03-08T05:06:11;5.0;;;2.8;;
28455;SDS011;15682;56.742;38.866;2024-03-08T05:08:11;7.5;;;2.7;;
28455;SDS011;15682;56.742;38.866;2024-03-08T05:10:11;5.1;;;2.9;;
28455;SDS011;15682;56.742;38.866;2024-03-08T05:12:10;5.3;;;2.8;;
28455;SDS011;15682;56.742;38.866;2024-03-08T05:14:10;6.1;;;2.9;;
28455;SDS011;15682;56.742;38.866;2024-03-08T05:16:10;5.9;;;3.1;;
28455;SDS011;15682;56.742;38.866;2024-03-08T05:18:10;6.6;;;3.1;;
28455;SDS011;15682;56.742;38.866;2024-03-08T05:20:10;5.8;;;3.2;;
28455;SDS011;15682;56.742;38.866;2024-03-08T05:22:09;7.4;;;3.3;;
28455;SDS011;15682;56.742;38.866;2024-03-08T05:24:09;9.1;;;3.5;;
28455;SDS011;15682;56.742;38.866;2024-03-08T05:26:09;7.8;;;3.3;;
28455;SDS011;15682;56.742;38.866;2024-03-08T05:28:09;6.5;;;3.2;;
28455;SDS011;15682;56.742;38.866;2024-03-08T05:30:09;4.9;;;2.9;;
28455;SDS011;15682;56.742;38.866;2024-03-08T05:32:09;12.9;;;3.9;;
28455;SDS011;15682;56.742;38.866;2024-03-08T05:34:08;7.9;;;3.3;;
28455;SDS011;15682;56.742;38.866;2024-03-08T05:36:08;5.2;;;3.2;;
28455;SDS011;15682;56.742;38.866;2024-03-08T05:38:08;6.0;;;3.2;;
28455;SDS011;15682;56.742;38.866;2024-03-08T05:40:08;7.0;;;3.2;;
28455;SDS011;15682;56.742;38.866;2024-03-08T05:42:08;6.2;;;3.3;;
28455;SDS011;15682;56.742;38.866;2024-03-08T05:44:08;8.1;;;3.0;;
28455;SDS011;15682;56.742;38.866;2024-03-08T05:46:08;5.3;;;3.0;;
28455;SDS011;15682;56.742;38.866;2024-03-08T05:48:08;6.2;;;3.2;;
28455;SDS011;15682;56.742;38.866;2024-03-08T05:50:08;5.8;;;3.2;;
28455;SDS011;15682;56.742;38.866;2024-03-08T05:52:07;5.8;;;3.1;;
28455;SDS011;15682;56.742;38.866;2024-03-08T05:54:08;6.5;;;3.3;;
28455;SDS011;15682;56.742;38.866;2024-03-08T05:56:07;7.5;;;3.1;;
28455;SDS011;15682;56.742;38.866;2024-03-08T05:58:07;5.7;;;3.2;;
28455;SDS011;15682;56.742;38.866;2024-03-08T06:00:07;7.3;;;3.7;;
28455;SDS011;15682;56.742;38.866;2024-03-08T06:02:06;6.7;;;3.2;;
28455;SDS011;15682;56.742;38.866;2024-03-08T06:04:06;6.8;;;3.6;;
28455;SDS011;15682;56.742;38.866;2024-03-08T06:06:06;6.9;;;3.5;;
28455;SDS011;15682;56.742;38.866;2024-03-08T06:08:06;7.9;;;3.7;;
28455;SDS011;15682;56.742;38.866;2024-03-08T06:10:07;6.6;;;3.6;;
28455;SDS011;15682;56.742;38.866;2024-03-08T06:12:06;9.4;;;3.5;;
28455;SDS011;15682;56.742;38.866;2024-03-08T06:14:06;8.1;;;3.2;;
28455;SDS011;15682;56.742;38.866;2024-03-08T06:16:06;7.3;;;3.5;;
28455;SDS011;15682;56.742;38.866;2024-03-08T06:18:05;6.2;;;3.1;;
28455;SDS011;15682;56.742;38.866;2024-03-08T06:20:06;6.8;;;3.7;;
28455;SDS011;15682;56.742;38.866;2024-03-08T06:22:05;6.8;;;3.8;;
28455;SDS011;15682;56.742;38.866;2024-03-08T06:24:05;8.3;;;3.6;;
28455;SDS011;15682;56.742;38.866;2024-03-08T06:26:05;7.8;;;3.6;;
28455;SDS011;15682;56.742;38.866;2024-03-08T06:28:05;7.0;;;3.7;;
28455;SDS011;15682;56.742;38.866;2024-03-08T06:30:05;7.0;;;3.8;;
28455;SDS011;15682;56.742;38.866;2024-03-08T06:32:05;8.1;;;3.7;;
28455;SDS011;15682;56.742;38.866;2024-03-08T06:34:04;6.2;;;3.4;;
28455;SDS011;15682;56.742;38.866;2024-03-08T06:36:04;6.5;;;3.7;;
28455;SDS011;15682;56.742;38.866;2024-03-08T06:38:04;6.4;;;3.6;;
28455;SDS011;15682;56.742;38.866;2024-03-08T06:40:04;5.6;;;3.8;;
28455;SDS011;15682;56.742;38.866;2024-03-08T06:42:04;7.5;;;3.9;;
28455;SDS011;15682;56.742;38.866;2024-03-08T06:44:04;7.8;;;3.9;;
28455;SDS011;15682;56.742;38.866;2024-03-08T06:46:04;7.3;;;3.8;;
28455;SDS011;15682;56.742;38.866;2024-03-08T06:48:04;5.7;;;3.5;;
28455;SDS011;15682;56.742;38.866;2024-03-08T06:50:04;8.2;;;3.8;;
28455;SDS011;15682;56.742;38.866;2024-03-08T06:52:03;7.5;;;3.8;;
28455;SDS011;15682;56.742;38.866;2024-03-08T06:54:03;9.3;;;3.9;;
28455;SDS011;15682;56.742;38.866;2024-03-08T06:56:03;8.9;;;4.5;;
28455;SDS011;15682;56.742;38.866;2024-03-08T06:58:03;6.6;;;4.0;;
28455;SDS011;15682;56.742;38.866;2024-03-08T07:00:03;6.1;;;4.0;;
28455;SDS011;15682;56.742;38.866;2024-03-08T07:02:03;10.7;;;4.2;;
28455;SDS011;15682;56.742;38.866;2024-03-08T07:04:02;7.4;;;3.7;;
28455;SDS011;15682;56.742;38.866;2024-03-08T07:06:03;10.5;;;4.1;;
28455;SDS011;15682;56.742;38.866;2024-03-08T07:08:02;6.6;;;4.1;;
28455;SDS011;15682;56.742;38.866;2024-03-08T07:10:02;6.3;;;3.9;;
28455;SDS011;15682;56.742;38.866;2024-03-08T07:12:02;6.2;;;3.9;;
28455;SDS011;15682;56.742;38.866;2024-03-08T07:14:02;10.6;;;4.5;;
28455;SDS011;15682;56.742;38.866;2024-03-08T07:16:02;6.8;;;3.9;;
28455;SDS011;15682;56.742;38.866;2024-03-08T07:18:02;8.8;;;4.1;;
28455;SDS011;15682;56.742;38.866;2024-03-08T07:20:01;10.4;;;4.3;;
28455;SDS011;15682;56.742;38.866;2024-03-08T07:22:01;11.8;;;4.6;;
28455;SDS011;15682;56.742;38.866;2024-03-08T07:24:01;7.5;;;4.4;;
28455;SDS011;15682;56.742;38.866;2024-03-08T07:26:02;13.6;;;5.0;;
28455;SDS011;15682;56.742;38.866;2024-03-08T07:28:01;10.3;;;5.1;;
28455;SDS011;15682;56.742;38.866;2024-03-08T07:30:01;10.2;;;5.0;;
28455;SDS011;15682;56.742;38.866;2024-03-08T07:32:01;9.8;;;5.2;;
28455;SDS011;15682;56.742;38.866;2024-03-08T07:34:01;8.5;;;5.0;;
28455;SDS011;15682;56.742;38.866;2024-03-08T07:36:01;8.9;;;4.5;;
28455;SDS011;15682;56.742;38.866;2024-03-08T07:38:01;9.8;;;4.5;;
28455;SDS011;15682;56.742;38.866;2024-03-08T07:40:00;7.9;;;4.6;;
28455;SDS011;15682;56.742;38.866;2024-03-08T07:42:00;7.6;;;4.6;;
28455;SDS011;15682;56.742;38.866;2024-03-08T07:44:00;8.5;;;5.2;;
28455;SDS011;15682;56.742;38.866;2024-03-08T07:46:00;9.4;;;5.0;;
28455;SDS011;15682;56.742;38.866;2024-03-08T07:48:00;9.1;;;4.9;;
28455;SDS011;15682;56.742;38.866;2024-03-08T07:50:00;15.9;;;7.5;;
28455;SDS011;15682;56.742;38.866;2024-03-08T07:52:00;8.5;;;5.2;;
28455;SDS011;15682;56.742;38.866;2024-03-08T07:54:00;8.5;;;5.1;;
28455;SDS011;15682;56.742;38.866;2024-03-08T07:56:00;10.1;;;5.2;;
28455;SDS011;15682;56.742;38.866;2024-03-08T07:58:00;12.5;;;4.7;;
28455;SDS011;15682;56.742;38.866;2024-03-08T08:00:00;8.1;;;4.6;;
28455;SDS011;15682;56.742;38.866;2024-03-08T08:02:00;9.0;;;5.2;;
28455;SDS011;15682;56.742;38.866;2024-03-08T08:03:59;8.6;;;4.9;;
28455;SDS011;15682;56.742;38.866;2024-03-08T08:05:59;8.7;;;4.9;;
28455;SDS011;15682;56.742;38.866;2024-03-08T08:07:59;9.3;;;5.1;;
28455;SDS011;15682;56.742;38.866;2024-03-08T08:09:59;7.5;;;4.6;;
28455;SDS011;15682;56.742;38.866;2024-03-08T08:11:59;10.0;;;5.1;;
28455;SDS011;15682;56.742;38.866;2024-03-08T08:13:59;12.2;;;4.7;;
28455;SDS011;15682;56.742;38.866;2024-03-08T08:15:59;11.9;;;5.4;;
28455;SDS011;15682;56.742;38.866;2024-03-08T08:17:59;9.0;;;5.5;;
28455;SDS011;15682;56.742;38.866;2024-03-08T08:19:59;12.0;;;5.0;;
28455;SDS011;15682;56.742;38.866;2024-03-08T08:21:59;8.9;;;4.9;;
28455;SDS011;15682;56.742;38.866;2024-03-08T08:23:59;11.4;;;5.5;;
28455;SDS011;15682;56.742;38.866;2024-03-08T08:25:59;8.9;;;5.0;;
28455;SDS011;15682;56.742;38.866;2024-03-08T08:27:59;9.1;;;5.4;;
28455;SDS011;15682;56.742;38.866;2024-03-08T08:29:59;8.5;;;4.9;;
28455;SDS011;15682;56.742;38.866;2024-03-08T08:31:59;12.0;;;5.3;;
28455;SDS011;15682;56.742;38.866;2024-03-08T08:33:59;8.7;;;4.9;;
28455;SDS011;15682;56.742;38.866;2024-03-08T08:35:59;8.2;;;4.5;;
28455;SDS011;15682;56.742;38.866;2024-03-08T08:37:59;9.0;;;4.7;;
28455;SDS011;15682;56.742;38.866;2024-03-08T08:39:59;10.0;;;5.3;;
28455;SDS011;15682;56.742;38.866;2024-03-08T08:41:59;7.8;;;4.9;;
28455;SDS011;15682;56.742;38.866;2024-03-08T08:43:59;10.0;;;4.7;;
28455;SDS011;15682;56.742;38.866;2024-03-08T08:45:59;9.9;;;4.6;;
28455;SDS011;15682;56.742;38.866;2024-03-08T08:47:59;7.9;;;4.6;;
28455;SDS011;15682;56.742;38.866;2024-03-08T08:49:58;9.8;;;4.6;;
28455;SDS011;15682;56.742;38.866;2024-03-08T08:51:58;9.1;;;5.1;;
28455;SDS011;15682;56.742;38.866;2024-03-08T08:53:59;8.6;;;4.5;;
28455;SDS011;15682;56.742;38.866;2024-03-08T08:55:58;7.9;;;5.0;;
28455;SDS011;15682;56.742;38.866;2024-03-08T08:57:59;8.1;;;4.7;;
28455;SDS011;15682;56.742;38.866;2024-03-08T08:59:58;7.9;;;4.7;;
28455;SDS011;15682;56.742;38.866;2024-03-08T09:01:58;9.9;;;5.5;;
28455;SDS011;15682;56.742;38.866;2024-03-08T09:03:58;10.5;;;5.1;;
28455;SDS011;15682;56.742;38.866;2024-03-08T09:05:58;8.8;;;4.8;;
28455;SDS011;15682;56.742;38.866;2024-03-08T09:07:58;8.6;;;4.7;;
28455;SDS011;15682;56.742;38.866;2024-03-08T09:09:58;8.8;;;5.2;;
28455;SDS011;15682;56.742;38.866;2024-03-08T09:11:58;8.6;;;4.7;;
28455;SDS011;15682;56.742;38.866;2024-03-08T09:13:58;9.7;;;5.2;;
28455;SDS011;15682;56.742;38.866;2024-03-08T09:15:58;9.3;;;5.3;;
28455;SDS011;15682;56.742;38.866;2024-03-08T09:17:58;8.1;;;5.2;;
28455;SDS011;15682;56.742;38.866;2024-03-08T09:19:58;10.2;;;5.6;;
28455;SDS011;15682;56.742;38.866;2024-03-08T09:21:58;7.8;;;4.7;;
28455;SDS011;15682;56.742;38.866;2024-03-08T09:23:58;9.1;;;5.7;;
28455;SDS011;15682;56.742;38.866;2024-03-08T09:25:58;9.6;;;5.1;;
28455;SDS011;15682;56.742;38.866;2024-03-08T09:27:58;8.3;;;4.9;;
28455;SDS011;15682;56.742;38.866;2024-03-08T09:29:58;9.4;;;5.3;;
28455;SDS011;15682;56.742;38.866;2024-03-08T09:31:58;10.0;;;5.2;;
28455;SDS011;15682;56.742;38.866;2024-03-08T09:33:58;10.6;;;5.5;;
28455;SDS011;15682;56.742;38.866;2024-03-08T09:35:58;10.9;;;5.5;;
28455;SDS011;15682;56.742;38.866;2024-03-08T09:37:58;8.8;;;5.3;;
28455;SDS011;15682;56.742;38.866;2024-03-08T09:39:58;8.4;;;4.9;;
28455;SDS011;15682;56.742;38.866;2024-03-08T09:41:58;9.6;;;5.8;;
28455;SDS011;15682;56.742;38.866;2024-03-08T09:43:58;7.2;;;4.4;;
28455;SDS011;15682;56.742;38.866;2024-03-08T09:45:58;8.0;;;4.5;;
28455;SDS011;15682;56.742;38.866;2024-03-08T09:47:58;9.3;;;4.9;;
28455;SDS011;15682;56.742;38.866;2024-03-08T09:49:58;8.2;;;4.8;;
28455;SDS011;15682;56.742;38.866;2024-03-08T09:51:58;14.1;;;5.0;;
28455;SDS011;15682;56.742;38.866;2024-03-08T09:53:58;8.2;;;5.1;;
28455;SDS011;15682;56.742;38.866;2024-03-08T09:55:58;6.5;;;4.1;;
28455;SDS011;15682;56.742;38.866;2024-03-08T09:57:58;9.7;;;4.6;;
28455;SDS011;15682;56.742;38.866;2024-03-08T09:59:58;8.6;;;4.8;;
28455;SDS011;15682;56.742;38.866;2024-03-08T10:01:58;7.8;;;4.3;;
28455;SDS011;15682;56.742;38.866;2024-03-08T10:03:57;8.3;;;4.3;;
28455;SDS011;15682;56.742;38.866;2024-03-08T10:05:58;6.8;;;4.2;;
28455;SDS011;15682;56.742;38.866;2024-03-08T10:07:58;10.4;;;5.2;;
28455;SDS011;15682;56.742;38.866;2024-03-08T10:09:57;7.3;;;4.6;;
28455;SDS011;15682;56.742;38.866;2024-03-08T10:11:58;7.4;;;4.0;;
28455;SDS011;15682;56.742;38.866;2024-03-08T10:13:57;6.3;;;3.6;;
28455;SDS011;15682;56.742;38.866;2024-03-08T10:15:57;8.3;;;4.4;;
28455;SDS011;15682;56.742;38.866;2024-03-08T10:17:57;7.2;;;3.8;;
28455;SDS011;15682;56.742;38.866;2024-03-08T10:19:58;7.7;;;3.6;;
28455;SDS011;15682;56.742;38.866;2024-03-08T10:21:58;6.8;;;3.4;;
28455;SDS011;15682;56.742;38.866;2024-03-08T10:23:58;6.7;;;4.0;;
28455;SDS011;15682;56.742;38.866;2024-03-08T10:25:58;8.3;;;3.3;;
28455;SDS011;15682;56.742;38.866;2024-03-08T10:27:58;6.9;;;3.4;;
28455;SDS011;15682;56.742;38.866;2024-03-08T10:29:58;8.5;;;3.4;;
28455;SDS011;15682;56.742;38.866;2024-03-08T10:31:58;7.8;;;3.6;;
28455;SDS011;15682;56.742;38.866;2024-03-08T10:33:58;6.0;;;3.5;;
28455;SDS011;15682;56.742;38.866;2024-03-08T10:35:58;8.0;;;3.4;;
28455;SDS011;15682;56.742;38.866;2024-03-08T10:37:58;6.4;;;3.2;;
28455;SDS011;15682;56.742;38.866;2024-03-08T10:40:00;5.2;;;2.9;;
28455;SDS011;15682;56.742;38.866;2024-03-08T10:41:58;6.1;;;3.1;;
28455;SDS011;15682;56.742;38.866;2024-03-08T10:44:03;9.2;;;3.3;;
28455;SDS011;15682;56.742;38.866;2024-03-08T10:46:00;5.7;;;3.1;;
28455;SDS011;15682;56.742;38.866;2024-03-08T10:48:04;6.6;;;3.1;;
28455;SDS011;15682;56.742;38.866;2024-03-08T10:50:11;7.2;;;3.5;;
28455;SDS011;15682;56.742;38.866;2024-03-08T10:51:58;6.3;;;3.1;;
28455;SDS011;15682;56.742;38.866;2024-03-08T10:53:58;13.2;;;4.3;;
28455;SDS011;15682;56.742;38.866;2024-03-08T10:55:58;5.8;;;3.2;;
28455;SDS011;15682;56.742;38.866;2024-03-08T10:57:58;12.2;;;3.8;;
28455;SDS011;15682;56.742;38.866;2024-03-08T10:59:58;5.2;;;3.0;;
28455;SDS011;15682;56.742;38.866;2024-03-08T11:01:58;5.8;;;2.9;;
28455;SDS011;15682;56.742;38.866;2024-03-08T11:03:58;5.1;;;2.8;;
28455;SDS011;15682;56.742;38.866;2024-03-08T11:05:58;4.3;;;2.6;;
28455;SDS011;15682;56.742;38.866;2024-03-08T11:07:58;5.7;;;2.7;;
28455;SDS011;15682;56.742;38.866;2024-03-08T11:09:58;6.6;;;3.3;;
28455;SDS011;15682;56.742;38.866;2024-03-08T11:13:58;5.1;;;2.6;;
28455;SDS011;15682;56.742;38.866;2024-03-08T11:15:58;5.1;;;2.6;;
28455;SDS011;15682;56.742;38.866;2024-03-08T11:17:58;5.4;;;2.7;;
28455;SDS011;15682;56.742;38.866;2024-03-08T11:19:58;5.9;;;2.7;;
28455;SDS011;15682;56.742;38.866;2024-03-08T11:21:58;6.7;;;3.5;;
28455;SDS011;15682;56.742;38.866;2024-03-08T11:23:58;5.3;;;3.0;;
28455;SDS011;15682;56.742;38.866;2024-03-08T11:25:58;6.1;;;3.0;;
28455;SDS011;15682;56.742;38.866;2024-03-08T11:28:07;9.1;;;3.4;;
28455;SDS011;15682;56.742;38.866;2024-03-08T11:29:59;6.8;;;3.2;;
28455;SDS011;15682;56.742;38.866;2024-03-08T11:32:03;7.8;;;3.6;;
28455;SDS011;15682;56.742;38.866;2024-03-08T11:33:57;5.9;;;3.1;;
28455;SDS011;15682;56.742;38.866;2024-03-08T11:36:00;9.4;;;3.3;;
28455;SDS011;15682;56.742;38.866;2024-03-08T11:37:58;7.3;;;3.7;;
28455;SDS011;15682;56.742;38.866;2024-03-08T11:39:58;6.2;;;3.6;;
28455;SDS011;15682;56.742;38.866;2024-03-08T11:41:57;35.2;;;7.2;;
28455;SDS011;15682;56.742;38.866;2024-03-08T11:44:03;6.5;;;3.7;;
28455;SDS011;15682;56.742;38.866;2024-03-08T11:46:07;5.8;;;3.3;;
28455;SDS011;15682;56.742;38.866;2024-03-08T11:47:57;9.4;;;3.8;;
28455;SDS011;15682;56.742;38.866;2024-03-08T11:49:57;6.2;;;3.1;;
28455;SDS011;15682;56.742;38.866;2024-03-08T11:51:57;8.5;;;3.7;;
28455;SDS011;15682;56.742;38.866;2024-03-08T11:53:57;6.7;;;3.4;;
28455;SDS011;15682;56.742;38.866;2024-03-08T11:56:05;7.0;;;3.4;;
28455;SDS011;15682;56.742;38.866;2024-03-08T11:58:01;6.2;;;3.4;;
28455;SDS011;15682;56.742;38.866;2024-03-08T11:59:58;6.5;;;3.4;;
28455;SDS011;15682;56.742;38.866;2024-03-08T12:01:59;5.5;;;3.0;;
28455;SDS011;15682;56.742;38.866;2024-03-08T12:03:57;7.4;;;3.2;;
28455;SDS011;15682;56.742;38.866;2024-03-08T12:05:57;6.9;;;3.3;;
28455;SDS011;15682;56.742;38.866;2024-03-08T12:07:57;6.5;;;3.7;;
28455;SDS011;15682;56.742;38.866;2024-03-08T12:11:58;6.4;;;3.4;;
28455;SDS011;15682;56.742;38.866;2024-03-08T12:13:57;6.8;;;3.2;;
28455;SDS011;15682;56.742;38.866;2024-03-08T12:15:57;6.8;;;3.4;;